Time,TemperatureF,DewpointF,PressureIn,WindDirection,WindDirectionDegrees,WindSpeedMPH,WindSpeedGustMPH,Humidity,HourlyPrecipIn,Conditions,Clouds,dailyrainin,SoftwareType,DateUTC
2013-02-26 00:00:00,23.3,21.1,30.24,NE,54,7.0,9.0,91,0.00,,---,0.01,VWS V14.01,2013-02-26 06:00:00,
2013-02-26 00:05:00,23.1,20.9,30.24,NE,34,5.0,7.0,91,0.00,,---,0.01,VWS V14.01,2013-02-26 06:05:00,
2013-02-26 00:10:00,23.1,20.9,30.21,NNE,30,6.0,7.0,91,0.00,,---,0.00,VWS V14.01,2013-02-26 06:10:00,
2013-02-26 00:15:00,23.0,20.8,30.21,NE,48,4.0,11.0,91,0.00,,---,0.00,VWS V14.01,2013-02-26 06:15:00,
2013-02-26 00:20:00,23.0,20.8,30.20,NE,42,2.0,6.0,91,0.00,,---,0.00,VWS V14.01,2013-02-26 06:20:00,
2013-02-26 00:25:00,23.1,20.9,30.20,NNW,346,4.0,7.0,91,0.00,,---,0.00,VWS V14.01,2013-02-26 06:25:00,
2013-02-26 00:30:00,23.1,21.1,30.19,NE,47,6.0,6.0,92,0.00,,---,0.00,VWS V14.01,2013-02-26 06:30:00,
2013-02-26 00:35:00,23.1,21.1,30.19,NNE,27,6.0,7.0,92,0.00,,---,0.00,VWS V14.01,2013-02-26 06:35:00,
2013-02-26 00:40:00,23.0,21.0,30.19,NNE,30,5.0,6.0,92,0.00,,---,0.00,VWS V14.01,2013-02-26 06:40:00,
2013-02-26 00:45:00,23.1,21.1,30.19,NE,39,4.0,9.0,92,0.00,,---,0.00,VWS V14.01,2013-02-26 06:45:00,
2013-02-26 00:50:00,23.1,21.1,30.19,NE,41,8.0,12.0,92,0.00,,---,0.00,VWS V14.01,2013-02-26 06:50:00,
2013-02-26 00:55:00,23.0,21.0,30.19,NE,49,3.0,8.0,92,0.00,,---,0.00,VWS V14.01,2013-02-26 06:55:00,
2013-02-26 01:00:00,23.1,21.1,30.19,NE,40,2.0,7.0,92,0.00,,---,0.00,VWS V14.01,2013-02-26 07:00:00,
2013-02-26 01:05:00,23.1,21.1,30.20,North,9,1.0,1.0,92,0.00,,---,0.00,VWS V14.01,2013-02-26 07:05:00,
2013-02-26 01:10:00,23.1,21.1,30.19,North,9,3.0,9.0,92,0.00,,---,0.00,VWS V14.01,2013-02-26 07:10:00,
2013-02-26 01:15:00,23.0,21.0,30.18,NE,50,7.0,9.0,92,0.00,,---,0.00,VWS V14.01,2013-02-26 07:15:00,
2013-02-26 01:20:00,23.0,21.0,30.19,NE,40,5.0,10.0,92,0.00,,---,0.00,VWS V14.01,2013-02-26 07:20:00,
2013-02-26 01:25:00,22.8,20.8,30.18,NE,36,4.0,9.0,92,0.00,,---,0.00,VWS V14.01,2013-02-26 07:25:00,
2013-02-26 01:30:00,22.7,20.7,30.18,NNE,24,6.0,7.0,92,0.00,,---,0.00,VWS V14.01,2013-02-26 07:30:00,
2013-02-26 01:35:00,22.7,20.7,30.17,NNE,28,4.0,6.0,92,0.00,,---,0.00,VWS V14.01,2013-02-26 07:35:00,
2013-02-26 01:40:00,22.8,20.8,30.17,NE,36,1.0,4.0,92,0.00,,---,0.00,VWS V14.01,2013-02-26 07:40:00,
2013-02-26 01:45:00,22.8,20.8,30.17,NNW,346,2.0,10.0,92,0.00,,---,0.00,VWS V14.01,2013-02-26 07:45:00,
2013-02-26 01:50:00,22.8,20.8,30.16,NE,39,4.0,9.0,92,0.00,,---,0.00,VWS V14.01,2013-02-26 07:50:00,
2013-02-26 01:55:00,22.8,20.8,30.17,NW,315,2.0,5.0,92,0.00,,---,0.00,VWS V14.01,2013-02-26 07:55:00,
2013-02-26 02:00:00,22.7,20.7,30.17,North,349,7.0,7.0,92,0.00,,---,0.00,VWS V14.01,2013-02-26 08:00:00,
2013-02-26 02:05:00,22.7,20.7,30.17,ENE,64,3.0,4.0,92,0.00,,---,0.00,VWS V14.01,2013-02-26 08:05:00,
2013-02-26 02:10:00,22.6,20.6,30.17,North,355,2.0,5.0,92,0.00,,---,0.00,VWS V14.01,2013-02-26 08:10:00,
2013-02-26 02:15:00,22.6,20.6,30.18,NNE,22,9.0,9.0,92,0.00,,---,0.00,VWS V14.01,2013-02-26 08:15:00,
2013-02-26 02:20:00,22.5,20.5,30.18,NE,50,2.0,5.0,92,0.00,,---,0.00,VWS V14.01,2013-02-26 08:20:00,
2013-02-26 02:25:00,22.5,20.5,30.17,NE,55,4.0,7.0,92,0.00,,---,0.00,VWS V14.01,2013-02-26 08:25:00,
2013-02-26 02:30:00,22.5,20.5,30.17,NE,40,2.0,6.0,92,0.00,,---,0.00,VWS V14.01,2013-02-26 08:30:00,
2013-02-26 02:35:00,22.5,20.5,30.17,North,355,5.0,10.0,92,0.00,,---,0.00,VWS V14.01,2013-02-26 08:35:00,
2013-02-26 02:40:00,22.5,20.5,30.18,NE,34,4.0,5.0,92,0.00,,---,0.00,VWS V14.01,2013-02-26 08:40:00,
2013-02-26 02:45:00,22.5,20.5,30.17,NE,52,5.0,7.0,92,0.00,,---,0.00,VWS V14.01,2013-02-26 08:45:00,
2013-02-26 02:50:00,22.5,20.5,30.17,NNE,22,3.0,6.0,92,0.00,,---,0.00,VWS V14.01,2013-02-26 08:50:00,
2013-02-26 02:55:00,22.5,20.5,30.17,NNW,340,4.0,6.0,92,0.00,,---,0.00,VWS V14.01,2013-02-26 08:55:00,
2013-02-26 03:00:00,22.5,20.5,30.15,NNE,31,6.0,9.0,92,0.00,,---,0.00,VWS V14.01,2013-02-26 09:00:00,
2013-02-26 03:05:00,22.5,20.5,30.15,NW,323,4.0,12.0,92,0.00,,---,0.00,VWS V14.01,2013-02-26 09:05:00,
2013-02-26 03:10:00,22.4,20.4,30.17,NE,49,5.0,5.0,92,0.00,,---,0.00,VWS V14.01,2013-02-26 09:10:00,
2013-02-26 03:15:00,22.4,20.4,30.16,NE,42,3.0,4.0,92,0.00,,---,0.00,VWS V14.01,2013-02-26 09:15:00,
2013-02-26 03:20:00,22.4,20.4,30.17,NW,315,2.0,3.0,92,0.00,,---,0.00,VWS V14.01,2013-02-26 09:20:00,
2013-02-26 03:25:00,22.5,20.5,30.16,North,5,1.0,5.0,92,0.00,,---,0.00,VWS V14.01,2013-02-26 09:25:00,
2013-02-26 03:30:00,22.5,20.5,30.15,North,5,4.0,7.0,92,0.00,,---,0.00,VWS V14.01,2013-02-26 09:30:00,
2013-02-26 03:35:00,22.5,20.5,30.14,NNE,19,9.0,9.0,92,0.00,,---,0.00,VWS V14.01,2013-02-26 09:35:00,
2013-02-26 03:40:00,22.6,20.6,30.14,NE,54,3.0,5.0,92,0.00,,---,0.00,VWS V14.01,2013-02-26 09:40:00,
2013-02-26 03:45:00,22.7,20.7,30.14,NW,325,1.0,7.0,92,0.00,,---,0.00,VWS V14.01,2013-02-26 09:45:00,
2013-02-26 03:50:00,22.7,20.7,30.15,NNW,332,2.0,6.0,92,0.00,,---,0.00,VWS V14.01,2013-02-26 09:50:00,
2013-02-26 03:55:00,22.7,20.7,30.16,NW,325,4.0,8.0,92,0.00,,---,0.00,VWS V14.01,2013-02-26 09:55:00,
2013-02-26 04:00:00,22.6,20.6,30.15,NNE,18,4.0,5.0,92,0.00,,---,0.00,VWS V14.01,2013-02-26 10:00:00,
2013-02-26 04:05:00,22.6,20.6,30.16,NNW,334,1.0,10.0,92,0.00,,---,0.00,VWS V14.01,2013-02-26 10:05:00,
2013-02-26 04:10:00,22.6,20.6,30.17,NNW,348,7.0,7.0,92,0.00,,---,0.00,VWS V14.01,2013-02-26 10:10:00,
2013-02-26 04:15:00,22.6,20.6,30.17,North,355,3.0,4.0,92,0.00,,---,0.00,VWS V14.01,2013-02-26 10:15:00,
2013-02-26 04:20:00,22.7,20.7,30.17,ENE,57,2.0,9.0,92,0.00,,---,0.00,VWS V14.01,2013-02-26 10:20:00,
2013-02-26 04:25:00,22.8,20.8,30.17,NE,37,2.0,5.0,92,0.00,,---,0.00,VWS V14.01,2013-02-26 10:25:00,
2013-02-26 04:30:00,22.9,20.9,30.17,NNW,336,4.0,6.0,92,0.00,,---,0.00,VWS V14.01,2013-02-26 10:30:00,
2013-02-26 04:35:00,22.9,20.9,30.16,NW,307,5.0,9.0,92,0.00,,---,0.00,VWS V14.01,2013-02-26 10:35:00,
2013-02-26 04:40:00,23.0,21.0,30.16,NNW,346,2.0,6.0,92,0.00,,---,0.00,VWS V14.01,2013-02-26 10:40:00,
2013-02-26 04:45:00,23.0,21.0,30.16,NNE,17,1.0,5.0,92,0.00,,---,0.00,VWS V14.01,2013-02-26 10:45:00,
2013-02-26 04:50:00,23.1,21.1,30.16,NNE,30,3.0,10.0,92,0.00,,---,0.00,VWS V14.01,2013-02-26 10:50:00,
2013-02-26 04:55:00,23.1,21.1,30.16,NW,326,5.0,5.0,92,0.00,,---,0.00,VWS V14.01,2013-02-26 10:55:00,
2013-02-26 05:00:00,23.2,21.2,30.16,NNW,333,5.0,6.0,92,0.00,,---,0.00,VWS V14.01,2013-02-26 11:00:00,
2013-02-26 05:05:00,23.3,21.3,30.16,NW,304,2.0,7.0,92,0.00,,---,0.00,VWS V14.01,2013-02-26 11:05:00,
2013-02-26 05:10:00,23.4,21.4,30.17,North,9,5.0,6.0,92,0.00,,---,0.00,VWS V14.01,2013-02-26 11:10:00,
2013-02-26 05:15:00,23.4,21.4,30.17,NNE,19,5.0,10.0,92,0.00,,---,0.00,VWS V14.01,2013-02-26 11:15:00,
2013-02-26 05:20:00,23.5,21.5,30.16,WNW,302,3.0,5.0,92,0.00,,---,0.00,VWS V14.01,2013-02-26 11:20:00,
2013-02-26 05:25:00,23.5,21.5,30.16,NNE,20,5.0,6.0,92,0.00,,---,0.00,VWS V14.01,2013-02-26 11:25:00,
2013-02-26 05:30:00,23.6,21.6,30.16,NE,42,5.0,8.0,92,0.00,,---,0.00,VWS V14.01,2013-02-26 11:30:00,
2013-02-26 05:35:00,23.6,21.6,30.16,NNE,22,6.0,6.0,92,0.00,,---,0.00,VWS V14.01,2013-02-26 11:35:00,
2013-02-26 05:40:00,23.7,21.7,30.16,NE,44,1.0,7.0,92,0.00,,---,0.00,VWS V14.01,2013-02-26 11:40:00,
2013-02-26 05:45:00,23.7,21.7,30.16,West,281,6.0,7.0,92,0.00,,---,0.00,VWS V14.01,2013-02-26 11:45:00,
2013-02-26 05:50:00,23.7,21.7,30.15,NNW,338,5.0,10.0,92,0.00,,---,0.00,VWS V14.01,2013-02-26 11:50:00,
2013-02-26 05:55:00,23.8,21.8,30.15,NNE,15,4.0,9.0,92,0.00,,---,0.00,VWS V14.01,2013-02-26 11:55:00,
2013-02-26 06:00:00,23.8,21.8,30.16,NW,319,3.0,11.0,92,0.00,,---,0.00,VWS V14.01,2013-02-26 12:00:00,
2013-02-26 06:05:00,23.8,21.8,30.16,NNE,27,4.0,5.0,92,0.00,,---,0.00,VWS V14.01,2013-02-26 12:05:00,
2013-02-26 06:10:00,23.8,21.8,30.16,NNW,334,3.0,5.0,92,0.00,,---,0.00,VWS V14.01,2013-02-26 12:10:00,
2013-02-26 06:15:00,23.8,21.8,30.16,North,355,2.0,6.0,92,0.00,,---,0.00,VWS V14.01,2013-02-26 12:15:00,
2013-02-26 06:20:00,23.8,21.8,30.16,NNW,341,4.0,7.0,92,0.00,,---,0.00,VWS V14.01,2013-02-26 12:20:00,
2013-02-26 06:25:00,23.9,21.9,30.16,NNW,336,5.0,9.0,92,0.00,,---,0.00,VWS V14.01,2013-02-26 12:25:00,
2013-02-26 06:30:00,23.8,21.8,30.16,NNE,21,4.0,7.0,92,0.00,,---,0.00,VWS V14.01,2013-02-26 12:30:00,
2013-02-26 06:35:00,23.8,21.8,30.16,NW,304,2.0,9.0,92,0.00,,---,0.00,VWS V14.01,2013-02-26 12:35:00,
2013-02-26 06:40:00,23.8,21.8,30.15,WNW,287,0.0,6.0,92,0.00,,---,0.00,VWS V14.01,2013-02-26 12:40:00,
2013-02-26 06:45:00,23.8,21.8,30.15,NNW,346,2.0,7.0,92,0.00,,---,0.00,VWS V14.01,2013-02-26 12:45:00,
2013-02-26 06:50:00,23.7,21.7,30.15,SE,128,2.0,6.0,92,0.00,,---,0.00,VWS V14.01,2013-02-26 12:50:00,
2013-02-26 06:55:00,23.6,21.6,30.15,NNW,336,6.0,9.0,92,0.00,,---,0.00,VWS V14.01,2013-02-26 12:55:00,
2013-02-26 07:00:00,23.5,21.5,30.15,NNE,12,1.0,6.0,92,0.00,,---,0.00,VWS V14.01,2013-02-26 13:00:00,
2013-02-26 07:05:00,23.4,21.4,30.15,NW,316,3.0,9.0,92,0.00,,---,0.00,VWS V14.01,2013-02-26 13:05:00,
2013-02-26 07:10:00,23.4,21.4,30.15,NNW,327,3.0,5.0,92,0.00,,---,0.00,VWS V14.01,2013-02-26 13:10:00,
2013-02-26 07:15:00,23.3,21.3,30.15,NNE,30,5.0,5.0,92,0.00,,---,0.00,VWS V14.01,2013-02-26 13:15:00,
2013-02-26 07:20:00,23.2,21.2,30.15,North,350,1.0,3.0,92,0.00,,---,0.00,VWS V14.01,2013-02-26 13:20:00,
2013-02-26 07:25:00,23.2,21.2,30.15,NNW,336,5.0,6.0,92,0.00,,---,0.00,VWS V14.01,2013-02-26 13:25:00,
2013-02-26 07:30:00,23.1,21.1,30.15,NNW,333,3.0,5.0,92,0.00,,---,0.00,VWS V14.01,2013-02-26 13:30:00,
2013-02-26 07:35:00,23.1,21.1,30.15,NE,40,4.0,8.0,92,0.00,,---,0.00,VWS V14.01,2013-02-26 13:35:00,
2013-02-26 07:40:00,23.0,21.0,30.15,NNE,19,5.0,6.0,92,0.00,,---,0.00,VWS V14.01,2013-02-26 13:40:00,
2013-02-26 07:45:00,23.0,21.0,30.15,North,11,4.0,6.0,92,0.00,,---,0.00,VWS V14.01,2013-02-26 13:45:00,
2013-02-26 07:50:00,22.9,20.9,30.15,North,350,3.0,9.0,92,0.00,,---,0.00,VWS V14.01,2013-02-26 13:50:00,
2013-02-26 07:55:00,22.9,20.9,30.16,NW,323,5.0,8.0,92,0.00,,---,0.00,VWS V14.01,2013-02-26 13:55:00,
2013-02-26 08:00:00,22.9,20.9,30.16,NNW,340,3.0,10.0,92,0.00,,---,0.00,VWS V14.01,2013-02-26 14:00:00,
2013-02-26 08:05:00,22.8,20.8,30.16,North,350,0.0,10.0,92,0.00,,---,0.00,VWS V14.01,2013-02-26 14:05:00,
2013-02-26 08:10:00,22.8,20.8,30.17,WNW,284,2.0,3.0,92,0.00,,---,0.00,VWS V14.01,2013-02-26 14:10:00,
2013-02-26 08:15:00,22.8,20.8,30.17,North,11,6.0,7.0,92,0.00,,---,0.00,VWS V14.01,2013-02-26 14:15:00,
2013-02-26 08:20:00,22.8,20.8,30.17,North,355,2.0,9.0,92,0.00,,---,0.00,VWS V14.01,2013-02-26 14:20:00,
2013-02-26 08:25:00,22.9,20.9,30.17,NNE,31,3.0,9.0,92,0.00,,---,0.00,VWS V14.01,2013-02-26 14:25:00,
2013-02-26 08:30:00,22.9,20.9,30.17,NW,324,3.0,4.0,92,0.00,,---,0.00,VWS V14.01,2013-02-26 14:30:00,
2013-02-26 08:35:00,22.9,20.9,30.18,NNE,19,5.0,7.0,92,0.00,,---,0.00,VWS V14.01,2013-02-26 14:35:00,
2013-02-26 08:40:00,22.9,20.9,30.18,NW,305,4.0,6.0,92,0.00,,---,0.00,VWS V14.01,2013-02-26 14:40:00,
2013-02-26 08:45:00,22.9,20.9,30.17,NNW,333,2.0,5.0,92,0.00,,---,0.00,VWS V14.01,2013-02-26 14:45:00,
2013-02-26 08:50:00,22.7,20.7,30.17,NW,315,3.0,5.0,92,0.00,,---,0.00,VWS V14.01,2013-02-26 14:50:00,
2013-02-26 08:55:00,22.7,20.7,30.17,NNE,17,4.0,8.0,92,0.00,,---,0.00,VWS V14.01,2013-02-26 14:55:00,
2013-02-26 09:00:00,22.6,20.6,30.17,ENE,61,5.0,7.0,92,0.00,,---,0.00,VWS V14.01,2013-02-26 15:00:00,
2013-02-26 09:05:00,22.6,20.6,30.17,NNW,336,8.0,8.0,92,0.00,,---,0.00,VWS V14.01,2013-02-26 15:05:00,
2013-02-26 09:10:00,22.6,20.6,30.18,NW,317,3.0,7.0,92,0.00,,---,0.00,VWS V14.01,2013-02-26 15:10:00,
2013-02-26 09:15:00,22.4,20.4,30.18,NW,324,5.0,5.0,92,0.00,,---,0.00,VWS V14.01,2013-02-26 15:15:00,
2013-02-26 09:20:00,22.4,20.4,30.18,WNW,299,6.0,6.0,92,0.00,,---,0.00,VWS V14.01,2013-02-26 15:20:00,
2013-02-26 09:25:00,22.3,20.3,30.19,ENE,72,2.0,9.0,92,0.00,,---,0.00,VWS V14.01,2013-02-26 15:25:00,
2013-02-26 09:30:00,22.3,20.1,30.19,NNW,344,5.0,6.0,91,0.00,,---,0.00,VWS V14.01,2013-02-26 15:30:00,
2013-02-26 09:35:00,22.3,20.3,30.19,NNW,329,1.0,5.0,92,0.00,,---,0.00,VWS V14.01,2013-02-26 15:35:00,
2013-02-26 09:40:00,22.4,20.4,30.19,NNW,345,2.0,7.0,92,0.00,,---,0.00,VWS V14.01,2013-02-26 15:40:00,
2013-02-26 09:45:00,22.5,20.5,30.18,NW,321,7.0,7.0,92,0.00,,---,0.00,VWS V14.01,2013-02-26 15:45:00,
2013-02-26 09:50:00,22.7,20.7,30.18,North,5,2.0,6.0,92,0.00,,---,0.00,VWS V14.01,2013-02-26 15:50:00,
2013-02-26 09:55:00,22.8,20.8,30.18,NNW,327,4.0,9.0,92,0.00,,---,0.00,VWS V14.01,2013-02-26 15:55:00,
2013-02-26 10:00:00,22.9,20.9,30.18,NE,46,12.0,12.0,92,0.00,,---,0.00,VWS V14.01,2013-02-26 16:00:00,
2013-02-26 10:05:00,23.0,21.0,30.18,WNW,296,3.0,7.0,92,0.00,,---,0.00,VWS V14.01,2013-02-26 16:05:00,
2013-02-26 10:10:00,23.2,21.2,30.18,NNW,333,9.0,11.0,92,0.00,,---,0.00,VWS V14.01,2013-02-26 16:10:00,
2013-02-26 10:15:00,23.4,21.4,30.18,NW,304,2.0,7.0,92,0.00,,---,0.00,VWS V14.01,2013-02-26 16:15:00,
2013-02-26 10:20:00,23.6,21.6,30.19,NNW,336,5.0,10.0,92,0.00,,---,0.00,VWS V14.01,2013-02-26 16:20:00,
2013-02-26 10:25:00,23.8,21.8,30.18,North,5,4.0,10.0,92,0.00,,---,0.00,VWS V14.01,2013-02-26 16:25:00,
2013-02-26 10:30:00,24.0,22.0,30.18,NNW,330,5.0,5.0,92,0.00,,---,0.00,VWS V14.01,2013-02-26 16:30:00,
2013-02-26 10:35:00,24.1,22.1,30.18,NW,316,1.0,5.0,92,0.00,,---,0.00,VWS V14.01,2013-02-26 16:35:00,
2013-02-26 10:40:00,24.3,22.3,30.18,NW,321,2.0,8.0,92,0.00,,---,0.00,VWS V14.01,2013-02-26 16:40:00,
2013-02-26 10:45:00,24.4,22.4,30.18,NNW,331,3.0,5.0,92,0.00,,---,0.00,VWS V14.01,2013-02-26 16:45:00,
2013-02-26 10:50:00,24.5,22.5,30.17,NW,322,3.0,9.0,92,0.00,,---,0.00,VWS V14.01,2013-02-26 16:50:00,
2013-02-26 10:55:00,24.6,22.6,30.17,NNE,26,10.0,10.0,92,0.00,,---,0.00,VWS V14.01,2013-02-26 16:55:00,
2013-02-26 11:00:00,24.7,22.7,30.16,WNW,300,5.0,13.0,92,0.00,,---,0.00,VWS V14.01,2013-02-26 17:00:00,
2013-02-26 11:05:00,24.9,22.9,30.16,NNW,332,1.0,5.0,92,0.00,,---,0.00,VWS V14.01,2013-02-26 17:05:00,
2013-02-26 11:10:00,25.2,23.2,30.17,North,360,7.0,11.0,92,0.00,,---,0.00,VWS V14.01,2013-02-26 17:10:00,
2013-02-26 11:15:00,25.3,23.3,30.17,NW,325,6.0,11.0,92,0.00,,---,0.00,VWS V14.01,2013-02-26 17:15:00,
2013-02-26 11:20:00,25.5,23.5,30.17,NW,309,5.0,12.0,92,0.00,,---,0.00,VWS V14.01,2013-02-26 17:20:00,
2013-02-26 11:24:00,25.6,23.6,30.17,WNW,302,13.0,13.0,92,0.00,,---,0.00,VWS V14.01,2013-02-26 17:24:00,
2013-02-26 11:29:00,25.7,23.7,30.17,WNW,294,7.0,7.0,92,0.00,,---,0.00,VWS V14.01,2013-02-26 17:29:00,
2013-02-26 11:34:00,25.8,23.8,30.17,WNW,287,3.0,9.0,92,0.00,,---,0.00,VWS V14.01,2013-02-26 17:34:00,
2013-02-26 11:39:00,26.0,24.0,30.16,North,360,7.0,7.0,92,0.00,,---,0.00,VWS V14.01,2013-02-26 17:39:00,
2013-02-26 11:44:00,26.2,24.2,30.16,NNW,340,5.0,9.0,92,0.00,,---,0.00,VWS V14.01,2013-02-26 17:44:00,
2013-02-26 11:49:00,26.5,24.5,30.15,North,355,6.0,9.0,92,0.00,,---,0.00,VWS V14.01,2013-02-26 17:49:00,
2013-02-26 11:54:00,26.7,24.7,30.15,West,268,5.0,5.0,92,0.00,,---,0.00,VWS V14.01,2013-02-26 17:54:00,
2013-02-26 11:59:00,26.9,24.9,30.14,NW,309,6.0,6.0,92,0.00,,---,0.00,VWS V14.01,2013-02-26 17:59:00,
2013-02-26 12:04:00,27.1,25.1,30.14,North,355,7.0,12.0,92,0.00,,---,0.00,VWS V14.01,2013-02-26 18:04:00,
2013-02-26 12:09:00,27.3,25.3,30.14,NW,320,8.0,13.0,92,0.00,,---,0.00,VWS V14.01,2013-02-26 18:09:00,
2013-02-26 12:14:00,27.5,25.2,30.14,NNW,335,4.0,9.0,91,0.00,,---,0.00,VWS V14.01,2013-02-26 18:14:00,
2013-02-26 12:19:00,27.8,25.5,30.14,NW,321,7.0,12.0,91,0.00,,---,0.00,VWS V14.01,2013-02-26 18:19:00,
2013-02-26 12:24:00,28.0,25.7,30.14,WNW,292,4.0,7.0,91,0.00,,---,0.00,VWS V14.01,2013-02-26 18:24:00,
2013-02-26 12:29:00,28.0,25.7,30.13,NW,310,6.0,7.0,91,0.00,,---,0.00,VWS V14.01,2013-02-26 18:29:00,
2013-02-26 12:34:00,28.3,26.0,30.13,NNW,333,3.0,11.0,91,0.00,,---,0.00,VWS V14.01,2013-02-26 18:34:00,
2013-02-26 12:39:00,28.5,26.2,30.13,NNW,327,4.0,12.0,91,0.00,,---,0.00,VWS V14.01,2013-02-26 18:39:00,
2013-02-26 12:44:00,28.8,26.2,30.11,NNW,337,8.0,12.0,90,0.00,,---,0.00,VWS V14.01,2013-02-26 18:44:00,
2013-02-26 12:49:00,29.0,26.4,30.11,NW,323,12.0,12.0,90,0.00,,---,0.00,VWS V14.01,2013-02-26 18:49:00,
2013-02-26 12:54:00,29.2,26.6,30.11,West,280,7.0,7.0,90,0.00,,---,0.00,VWS V14.01,2013-02-26 18:54:00,
2013-02-26 12:59:00,29.3,26.5,30.11,NNW,338,7.0,13.0,89,0.00,,---,0.00,VWS V14.01,2013-02-26 18:59:00,
2013-02-26 13:04:00,29.3,26.5,30.11,NNW,328,5.0,9.0,89,0.00,,---,0.00,VWS V14.01,2013-02-26 19:04:00,
2013-02-26 13:09:00,29.6,26.8,30.10,North,351,5.0,5.0,89,0.00,,---,0.00,VWS V14.01,2013-02-26 19:09:00,
2013-02-26 13:14:00,29.9,26.8,30.10,North,355,5.0,11.0,88,0.00,,---,0.00,VWS V14.01,2013-02-26 19:14:00,
2013-02-26 13:19:00,30.0,26.9,30.10,NNW,329,6.0,11.0,88,0.00,,---,0.00,VWS V14.01,2013-02-26 19:19:00,
2013-02-26 13:24:00,30.2,27.1,30.10,WNW,298,3.0,11.0,88,0.00,,---,0.00,VWS V14.01,2013-02-26 19:24:00,
2013-02-26 13:29:00,30.3,26.9,30.10,NNE,28,9.0,10.0,87,0.00,,---,0.00,VWS V14.01,2013-02-26 19:29:00,
2013-02-26 13:34:00,30.5,27.1,30.10,NNE,17,7.0,7.0,87,0.00,,---,0.00,VWS V14.01,2013-02-26 19:34:00,
2013-02-26 13:39:00,30.6,26.9,30.09,North,355,4.0,6.0,86,0.00,,---,0.00,VWS V14.01,2013-02-26 19:39:00,
2013-02-26 13:44:00,30.7,27.0,30.09,NNE,17,4.0,11.0,86,0.00,,---,0.00,VWS V14.01,2013-02-26 19:44:00,
2013-02-26 13:49:00,30.8,27.1,30.08,North,350,5.0,5.0,86,0.00,,---,0.00,VWS V14.01,2013-02-26 19:49:00,
2013-02-26 13:54:00,31.0,27.0,30.08,NNW,337,6.0,6.0,85,0.00,,---,0.00,VWS V14.01,2013-02-26 19:54:00,
2013-02-26 13:59:00,31.1,27.1,30.08,North,350,3.0,5.0,85,0.00,,---,0.00,VWS V14.01,2013-02-26 19:59:00,
2013-02-26 14:04:00,31.2,27.2,30.08,NNW,346,3.0,6.0,85,0.00,,---,0.00,VWS V14.01,2013-02-26 20:04:00,
2013-02-26 14:09:00,31.4,27.4,30.08,NNE,21,3.0,8.0,85,0.00,,---,0.00,VWS V14.01,2013-02-26 20:09:00,
2013-02-26 14:14:00,31.5,27.5,30.08,North,360,5.0,7.0,85,0.00,,---,0.00,VWS V14.01,2013-02-26 20:14:00,
2013-02-26 14:19:00,31.5,27.2,30.07,NNW,335,3.0,5.0,84,0.00,,---,0.00,VWS V14.01,2013-02-26 20:19:00,
2013-02-26 14:24:00,31.4,27.1,30.07,North,350,12.0,12.0,84,0.00,,---,0.00,VWS V14.01,2013-02-26 20:24:00,
2013-02-26 14:29:00,31.3,27.0,30.07,NW,325,5.0,12.0,84,0.00,,---,0.00,VWS V14.01,2013-02-26 20:29:00,
2013-02-26 14:34:00,31.2,26.9,30.07,North,360,5.0,7.0,84,0.00,,---,0.00,VWS V14.01,2013-02-26 20:34:00,
2013-02-26 14:39:00,31.2,26.9,30.07,North,349,4.0,4.0,84,0.00,,---,0.00,VWS V14.01,2013-02-26 20:39:00,
2013-02-26 14:44:00,31.3,27.0,30.06,NNW,341,3.0,5.0,84,0.00,,---,0.00,VWS V14.01,2013-02-26 20:44:00,
2013-02-26 14:49:00,31.3,27.0,30.06,NNW,342,7.0,7.0,84,0.00,,---,0.00,VWS V14.01,2013-02-26 20:49:00,
2013-02-26 14:54:00,31.4,27.1,30.07,NW,310,4.0,9.0,84,0.00,,---,0.00,VWS V14.01,2013-02-26 20:54:00,
2013-02-26 14:59:00,31.3,27.0,30.07,WNW,301,3.0,7.0,84,0.00,,---,0.00,VWS V14.01,2013-02-26 20:59:00,
2013-02-26 15:04:00,31.2,26.9,30.07,North,355,4.0,7.0,84,0.00,,---,0.00,VWS V14.01,2013-02-26 21:04:00,
2013-02-26 15:09:00,31.1,26.8,30.07,NNE,18,4.0,5.0,84,0.00,,---,0.00,VWS V14.01,2013-02-26 21:09:00,
2013-02-26 15:14:00,31.0,27.0,30.07,NW,305,3.0,4.0,85,0.00,,---,0.00,VWS V14.01,2013-02-26 21:14:00,
2013-02-26 15:19:00,30.8,26.8,30.07,NW,306,3.0,5.0,85,0.00,,---,0.00,VWS V14.01,2013-02-26 21:19:00,
2013-02-26 15:24:00,30.8,26.8,30.07,NNW,347,6.0,9.0,85,0.00,,---,0.00,VWS V14.01,2013-02-26 21:24:00,
2013-02-26 15:29:00,30.9,27.2,30.08,NW,313,2.0,5.0,86,0.00,,---,0.00,VWS V14.01,2013-02-26 21:29:00,
2013-02-26 15:34:00,31.0,27.3,30.08,NNW,336,4.0,4.0,86,0.00,,---,0.00,VWS V14.01,2013-02-26 21:34:00,
2013-02-26 15:39:00,31.0,27.0,30.08,North,355,3.0,6.0,85,0.00,,---,0.00,VWS V14.01,2013-02-26 21:39:00,
2013-02-26 15:44:00,30.8,26.8,30.08,SW,223,5.0,6.0,85,0.00,,---,0.00,VWS V14.01,2013-02-26 21:44:00,
2013-02-26 15:49:00,30.7,27.0,30.08,NNW,329,4.0,4.0,86,0.00,,---,0.00,VWS V14.01,2013-02-26 21:49:00,
2013-02-26 15:54:00,30.7,27.0,30.08,NW,321,5.0,8.0,86,0.00,,---,0.00,VWS V14.01,2013-02-26 21:54:00,
2013-02-26 15:59:00,30.6,26.9,30.08,NNW,329,3.0,7.0,86,0.00,,---,0.00,VWS V14.01,2013-02-26 21:59:00,
2013-02-26 16:04:00,30.7,27.0,30.08,NW,310,4.0,6.0,86,0.00,,---,0.00,VWS V14.01,2013-02-26 22:04:00,
2013-02-26 16:09:00,30.8,27.1,30.08,NNW,329,3.0,4.0,86,0.00,,---,0.00,VWS V14.01,2013-02-26 22:09:00,
2013-02-26 16:14:00,30.9,27.2,30.09,NW,313,3.0,6.0,86,0.00,,---,0.00,VWS V14.01,2013-02-26 22:14:00,
2013-02-26 16:19:00,31.0,27.3,30.09,North,5,2.0,2.0,86,0.00,,---,0.00,VWS V14.01,2013-02-26 22:19:00,
2013-02-26 16:24:00,31.0,27.3,30.09,NNW,327,2.0,6.0,86,0.00,,---,0.00,VWS V14.01,2013-02-26 22:24:00,
2013-02-26 16:29:00,30.9,27.2,30.09,NNW,334,4.0,9.0,86,0.00,,---,0.00,VWS V14.01,2013-02-26 22:29:00,
2013-02-26 16:34:00,30.9,27.2,30.09,NW,325,2.0,5.0,86,0.00,,---,0.00,VWS V14.01,2013-02-26 22:34:00,
2013-02-26 16:39:00,30.8,27.1,30.09,NW,305,2.0,4.0,86,0.00,,---,0.00,VWS V14.01,2013-02-26 22:39:00,
2013-02-26 16:44:00,30.7,27.0,30.09,NNW,336,4.0,4.0,86,0.00,,---,0.00,VWS V14.01,2013-02-26 22:44:00,
2013-02-26 16:49:00,30.7,27.0,30.09,North,360,5.0,12.0,86,0.00,,---,0.00,VWS V14.01,2013-02-26 22:49:00,
2013-02-26 16:54:00,30.6,26.9,30.09,WNW,303,6.0,8.0,86,0.00,,---,0.00,VWS V14.01,2013-02-26 22:54:00,
2013-02-26 16:59:00,30.5,26.8,30.09,NNW,344,3.0,7.0,86,0.00,,---,0.00,VWS V14.01,2013-02-26 22:59:00,
2013-02-26 17:04:00,30.4,26.7,30.10,NNW,328,1.0,4.0,86,0.00,,---,0.00,VWS V14.01,2013-02-26 23:04:00,
2013-02-26 17:09:00,30.3,26.6,30.10,NNW,348,3.0,7.0,86,0.00,,---,0.00,VWS V14.01,2013-02-26 23:09:00,
2013-02-26 17:14:00,30.3,26.6,30.10,NNW,342,4.0,5.0,86,0.00,,---,0.00,VWS V14.01,2013-02-26 23:14:00,
2013-02-26 17:19:00,30.3,26.9,30.10,WNW,297,5.0,11.0,87,0.00,,---,0.00,VWS V14.01,2013-02-26 23:19:00,
2013-02-26 17:24:00,30.2,26.8,30.10,WNW,298,7.0,7.0,87,0.00,,---,0.00,VWS V14.01,2013-02-26 23:24:00,
2013-02-26 17:29:00,30.0,26.6,30.10,NNW,338,4.0,6.0,87,0.00,,---,0.00,VWS V14.01,2013-02-26 23:29:00,
2013-02-26 17:34:00,29.8,26.4,30.10,NW,314,2.0,6.0,87,0.00,,---,0.00,VWS V14.01,2013-02-26 23:34:00,
2013-02-26 17:39:00,29.7,26.3,30.11,NW,317,5.0,5.0,87,0.00,,---,0.00,VWS V14.01,2013-02-26 23:39:00,
2013-02-26 17:44:00,29.7,26.3,30.11,WNW,298,3.0,5.0,87,0.00,,---,0.00,VWS V14.01,2013-02-26 23:44:00,
2013-02-26 17:49:00,29.7,26.6,30.11,NNW,336,2.0,5.0,88,0.00,,---,0.00,VWS V14.01,2013-02-26 23:49:00,
2013-02-26 17:54:00,29.8,26.7,30.12,WNW,292,5.0,5.0,88,0.00,,---,0.00,VWS V14.01,2013-02-26 23:54:00,
2013-02-26 17:59:00,29.7,26.6,30.12,North,5,10.0,10.0,88,0.00,,---,0.00,VWS V14.01,2013-02-26 23:59:00,
2013-02-26 18:04:00,29.6,26.5,30.13,WNW,290,6.0,6.0,88,0.00,,---,0.00,VWS V14.01,2013-02-27 00:04:00,
2013-02-26 18:09:00,29.4,26.3,30.14,NW,315,4.0,7.0,88,0.00,,---,0.00,VWS V14.01,2013-02-27 00:09:00,
2013-02-26 18:14:00,29.2,26.1,30.14,WNW,301,4.0,7.0,88,0.00,,---,0.00,VWS V14.01,2013-02-27 00:14:00,
2013-02-26 18:19:00,29.1,26.0,30.15,WNW,286,4.0,8.0,88,0.00,,---,0.00,VWS V14.01,2013-02-27 00:19:00,
2013-02-26 18:24:00,29.0,25.9,30.15,WNW,301,6.0,9.0,88,0.00,,---,0.00,VWS V14.01,2013-02-27 00:24:00,
2013-02-26 18:29:00,28.9,25.8,30.15,NW,314,4.0,6.0,88,0.00,,---,0.00,VWS V14.01,2013-02-27 00:29:00,
2013-02-26 18:34:00,28.8,25.7,30.16,NW,308,2.0,7.0,88,0.00,,---,0.00,VWS V14.01,2013-02-27 00:34:00,
2013-02-26 18:39:00,28.7,25.6,30.15,WNW,288,5.0,7.0,88,0.00,,---,0.00,VWS V14.01,2013-02-27 00:39:00,
2013-02-26 18:44:00,28.7,25.6,30.16,WNW,290,5.0,8.0,88,0.00,,---,0.00,VWS V14.01,2013-02-27 00:44:00,
2013-02-26 18:49:00,28.6,25.5,30.16,NW,313,6.0,8.0,88,0.00,,---,0.00,VWS V14.01,2013-02-27 00:49:00,
2013-02-26 18:54:00,28.5,25.4,30.16,WNW,303,2.0,5.0,88,0.00,,---,0.00,VWS V14.01,2013-02-27 00:54:00,
2013-02-26 18:59:00,28.5,25.7,30.17,WNW,296,4.0,5.0,89,0.00,,---,0.00,VWS V14.01,2013-02-27 00:59:00,
2013-02-26 19:04:00,28.6,25.8,30.17,NNE,19,3.0,4.0,89,0.00,,---,0.00,VWS V14.01,2013-02-27 01:04:00,
2013-02-26 19:09:00,28.6,25.8,30.17,NW,315,3.0,9.0,89,0.00,,---,0.00,VWS V14.01,2013-02-27 01:09:00,
2013-02-26 19:14:00,28.5,25.7,30.17,NNW,327,2.0,7.0,89,0.00,,---,0.00,VWS V14.01,2013-02-27 01:14:00,
2013-02-26 19:19:00,28.5,25.7,30.17,NW,324,6.0,11.0,89,0.00,,---,0.00,VWS V14.01,2013-02-27 01:19:00,
2013-02-26 19:24:00,28.5,25.7,30.17,West,279,3.0,10.0,89,0.00,,---,0.00,VWS V14.01,2013-02-27 01:24:00,
2013-02-26 19:29:00,28.5,25.7,30.17,NW,323,1.0,3.0,89,0.00,,---,0.00,VWS V14.01,2013-02-27 01:29:00,
2013-02-26 19:34:00,28.5,25.7,30.18,NW,309,3.0,10.0,89,0.00,,---,0.00,VWS V14.01,2013-02-27 01:34:00,
2013-02-26 19:39:00,28.5,25.7,30.18,NW,317,3.0,10.0,89,0.00,,---,0.00,VWS V14.01,2013-02-27 01:39:00,
2013-02-26 19:44:00,28.4,25.6,30.18,NW,315,4.0,6.0,89,0.00,,---,0.00,VWS V14.01,2013-02-27 01:44:00,
2013-02-26 19:49:00,28.4,25.6,30.19,NW,311,3.0,5.0,89,0.00,,---,0.00,VWS V14.01,2013-02-27 01:49:00,
2013-02-26 19:54:00,28.4,25.6,30.19,NW,325,3.0,7.0,89,0.00,,---,0.00,VWS V14.01,2013-02-27 01:54:00,
2013-02-26 19:59:00,28.4,25.6,30.19,NNW,336,1.0,8.0,89,0.00,,---,0.00,VWS V14.01,2013-02-27 01:59:00,
2013-02-26 20:04:00,28.5,25.7,30.19,NNW,343,3.0,6.0,89,0.00,,---,0.00,VWS V14.01,2013-02-27 02:04:00,
2013-02-26 20:10:00,28.4,25.6,30.19,WNW,294,5.0,6.0,89,0.00,,---,0.00,VWS V14.01,2013-02-27 02:10:00,
2013-02-26 20:15:00,28.4,25.6,30.19,NNW,346,4.0,6.0,89,0.00,,---,0.00,VWS V14.01,2013-02-27 02:15:00,
2013-02-26 20:20:00,28.4,25.6,30.19,North,355,4.0,7.0,89,0.00,,---,0.00,VWS V14.01,2013-02-27 02:20:00,
2013-02-26 20:25:00,28.5,25.7,30.18,NW,306,4.0,10.0,89,0.00,,---,0.00,VWS V14.01,2013-02-27 02:25:00,
2013-02-26 20:30:00,28.5,25.4,30.18,North,360,9.0,9.0,88,0.00,,---,0.00,VWS V14.01,2013-02-27 02:30:00,
2013-02-26 20:35:00,28.5,25.4,30.18,NNW,339,2.0,4.0,88,0.00,,---,0.00,VWS V14.01,2013-02-27 02:35:00,
2013-02-26 20:40:00,28.5,25.4,30.18,NW,318,3.0,3.0,88,0.00,,---,0.00,VWS V14.01,2013-02-27 02:40:00,
2013-02-26 20:45:00,28.5,25.4,30.19,NNW,335,3.0,4.0,88,0.00,,---,0.00,VWS V14.01,2013-02-27 02:45:00,
2013-02-26 20:50:00,28.5,25.4,30.19,North,355,4.0,5.0,88,0.00,,---,0.00,VWS V14.01,2013-02-27 02:50:00,
2013-02-26 20:55:00,28.5,25.4,30.19,WNW,296,4.0,6.0,88,0.00,,---,0.00,VWS V14.01,2013-02-27 02:55:00,
2013-02-26 21:00:00,28.5,25.4,30.19,NNW,344,3.0,4.0,88,0.00,,---,0.00,VWS V14.01,2013-02-27 03:00:00,
2013-02-26 21:05:00,28.5,25.4,30.19,NW,315,4.0,7.0,88,0.00,,---,0.00,VWS V14.01,2013-02-27 03:05:00,
2013-02-26 21:10:00,28.4,25.3,30.21,NNW,330,4.0,4.0,88,0.00,,---,0.00,VWS V14.01,2013-02-27 03:10:00,
2013-02-26 21:15:00,28.3,25.2,30.21,NW,323,2.0,3.0,88,0.00,,---,0.00,VWS V14.01,2013-02-27 03:15:00,
2013-02-26 21:20:00,28.2,25.1,30.21,NNE,23,3.0,3.0,88,0.00,,---,0.00,VWS V14.01,2013-02-27 03:20:00,
2013-02-26 21:25:00,28.1,25.0,30.21,WNW,287,2.0,2.0,88,0.00,,---,0.00,VWS V14.01,2013-02-27 03:25:00,
2013-02-26 21:30:00,28.0,24.9,30.21,NNW,336,4.0,6.0,88,0.00,,---,0.00,VWS V14.01,2013-02-27 03:30:00,
2013-02-26 21:35:00,27.8,24.7,30.21,West,276,4.0,4.0,88,0.00,,---,0.00,VWS V14.01,2013-02-27 03:35:00,
2013-02-26 21:40:00,27.6,24.5,30.21,NNW,338,2.0,4.0,88,0.00,,---,0.00,VWS V14.01,2013-02-27 03:40:00,
2013-02-26 21:45:00,27.4,24.3,30.22,WNW,289,2.0,2.0,88,0.00,,---,0.00,VWS V14.01,2013-02-27 03:45:00,
2013-02-26 21:50:00,27.2,24.1,30.22,WNW,301,2.0,5.0,88,0.00,,---,0.00,VWS V14.01,2013-02-27 03:50:00,
2013-02-26 21:55:00,27.1,24.0,30.22,NNW,336,4.0,4.0,88,0.00,,---,0.00,VWS V14.01,2013-02-27 03:55:00,
2013-02-26 22:00:00,27.0,24.2,30.22,NW,305,2.0,4.0,89,0.00,,---,0.00,VWS V14.01,2013-02-27 04:00:00,
2013-02-26 22:05:00,26.9,23.8,30.21,NW,307,2.0,3.0,88,0.00,,---,0.00,VWS V14.01,2013-02-27 04:05:00,
2013-02-26 22:10:00,26.8,23.7,30.21,NW,319,2.0,5.0,88,0.00,,---,0.00,VWS V14.01,2013-02-27 04:10:00,
2013-02-26 22:15:00,26.7,23.9,30.22,NW,311,2.0,4.0,89,0.00,,---,0.00,VWS V14.01,2013-02-27 04:15:00,
2013-02-26 22:20:00,26.7,23.9,30.22,NNW,329,3.0,3.0,89,0.00,,---,0.00,VWS V14.01,2013-02-27 04:20:00,
2013-02-26 22:25:00,26.6,23.8,30.22,NW,307,2.0,3.0,89,0.00,,---,0.00,VWS V14.01,2013-02-27 04:25:00,
2013-02-26 22:30:00,26.5,23.7,30.22,NW,325,1.0,6.0,89,0.00,,---,0.00,VWS V14.01,2013-02-27 04:30:00,
2013-02-26 22:35:00,26.5,23.7,30.21,NNW,336,2.0,3.0,89,0.00,,---,0.00,VWS V14.01,2013-02-27 04:35:00,
2013-02-26 22:40:00,26.5,23.7,30.22,NW,320,2.0,4.0,89,0.00,,---,0.00,VWS V14.01,2013-02-27 04:40:00,
2013-02-26 22:45:00,26.4,23.6,30.21,West,262,2.0,4.0,89,0.00,,---,0.00,VWS V14.01,2013-02-27 04:45:00,
2013-02-26 22:50:00,26.4,23.6,30.22,WNW,282,6.0,6.0,89,0.00,,---,0.00,VWS V14.01,2013-02-27 04:50:00,
2013-02-26 22:55:00,26.3,23.5,30.22,NW,315,3.0,3.0,89,0.00,,---,0.00,VWS V14.01,2013-02-27 04:55:00,
2013-02-26 23:00:00,26.3,23.5,30.22,WNW,296,6.0,6.0,89,0.00,,---,0.00,VWS V14.01,2013-02-27 05:00:00,
2013-02-26 23:05:00,26.3,23.5,30.21,NW,322,6.0,6.0,89,0.00,,---,0.00,VWS V14.01,2013-02-27 05:05:00,
2013-02-26 23:10:00,26.2,23.4,30.22,NW,305,6.0,6.0,89,0.00,,---,0.00,VWS V14.01,2013-02-27 05:10:00,
2013-02-26 23:15:00,26.1,23.3,30.22,NW,320,6.0,9.0,89,0.00,,---,0.00,VWS V14.01,2013-02-27 05:15:00,
2013-02-26 23:20:00,26.0,23.2,30.22,WNW,289,4.0,7.0,89,0.00,,---,0.00,VWS V14.01,2013-02-27 05:20:00,
2013-02-26 23:25:00,26.0,23.2,30.22,NW,309,4.0,8.0,89,0.00,,---,0.00,VWS V14.01,2013-02-27 05:25:00,
2013-02-26 23:30:00,26.0,23.2,30.22,NNW,335,6.0,11.0,89,0.00,,---,0.00,VWS V14.01,2013-02-27 05:30:00,
2013-02-26 23:35:00,25.9,23.1,30.21,NW,304,10.0,10.0,89,0.00,,---,0.00,VWS V14.01,2013-02-27 05:35:00,
2013-02-26 23:40:00,25.9,23.1,30.22,NW,305,10.0,12.0,89,0.00,,---,0.00,VWS V14.01,2013-02-27 05:40:00,
2013-02-26 23:45:00,25.8,23.0,30.22,NW,321,5.0,9.0,89,0.00,,---,0.00,VWS V14.01,2013-02-27 05:45:00,
2013-02-26 23:50:00,25.7,22.9,30.21,NW,309,3.0,7.0,89,0.00,,---,0.00,VWS V14.01,2013-02-27 05:50:00,
2013-02-26 23:55:00,25.7,22.9,30.21,NW,319,11.0,11.0,89,0.00,,---,0.00,VWS V14.01,2013-02-27 05:55:00,